createdAt,value
2023-02-12T00:02:34.392Z,102411.16
2023-02-12T00:05:42.692Z,102417.38
2023-02-12T00:08:16.580Z,102417.28
2023-02-12T00:10:51.714Z,102413.84
2023-02-12T00:13:32.766Z,102422.50
2023-02-12T00:16:29.183Z,102415.50
2023-02-12T00:19:02.055Z,102197.72
2023-02-12T00:21:42.707Z,102230.38
2023-02-12T00:24:14.825Z,102432.31
2023-02-12T00:26:43.891Z,102440.97
2023-02-12T00:29:14.314Z,102443.59
2023-02-12T00:31:46.012Z,102444.50
2023-02-12T00:34:18.740Z,102437.44
2023-02-12T00:36:55.177Z,102444.53
2023-02-12T00:39:37.939Z,102137.75
2023-02-12T00:42:10.468Z,102451.44
2023-02-12T00:44:40.778Z,102448.91
2023-02-12T00:47:41.510Z,102204.25
2023-02-12T00:50:24.066Z,102453.31
2023-02-12T00:53:00.314Z,102454.03
2023-02-12T00:55:32.360Z,102457.59
2023-02-12T00:58:23.149Z,102456.72
2023-02-12T01:01:01.011Z,102469.97
2023-02-12T01:03:32.401Z,102467.41
2023-02-12T01:06:02.106Z,102473.44
2023-02-12T01:08:33.734Z,102469.03
2023-02-12T01:11:07.448Z,102195.03
2023-02-12T01:13:42.684Z,102467.00
2023-02-12T01:16:28.210Z,102275.78
2023-02-12T01:19:00.147Z,102467.00
2023-02-12T01:21:36.929Z,102430.56
2023-02-12T01:24:36.959Z,102461.94
2023-02-12T01:27:44.292Z,102462.78
2023-02-12T01:30:16.413Z,102469.81
2023-02-12T01:33:01.880Z,102474.06
2023-02-12T01:35:31.095Z,102474.00
2023-02-12T01:38:10.237Z,102475.88
2023-02-12T01:40:47.843Z,102469.78
2023-02-12T01:43:19.689Z,102468.78
2023-02-12T01:45:56.727Z,102465.19
2023-02-12T01:48:39.883Z,102450.06
2023-02-12T01:51:13.796Z,102460.75
2023-02-12T01:54:03.923Z,102212.22
2023-02-12T01:56:35.529Z,102470.47
2023-02-12T01:59:04.765Z,102478.38
2023-02-12T02:01:37.260Z,102343.88
2023-02-12T02:04:18.567Z,102256.88
2023-02-12T02:07:10.994Z,102207.91
2023-02-12T02:09:48.367Z,102192.72
2023-02-12T02:12:38.153Z,102481.84
2023-02-12T02:15:09.080Z,102490.59
2023-02-12T02:18:03.861Z,102329.53
2023-02-12T02:21:24.401Z,102395.28
2023-02-12T02:24:39.374Z,102486.88
2023-02-12T02:27:35.059Z,102496.47
2023-02-12T02:30:35.738Z,102336.09
2023-02-12T02:33:29.244Z,102219.41
2023-02-12T02:36:23.605Z,102279.16
2023-02-12T02:39:07.974Z,102312.00
2023-02-12T02:41:47.610Z,102128.78
2023-02-12T02:44:25.524Z,102217.41
2023-02-12T02:46:59.127Z,102503.22
2023-02-12T02:49:38.492Z,102500.53
2023-02-12T02:52:15.533Z,102469.47
2023-02-12T02:55:01.505Z,102466.00
2023-02-12T02:57:42.252Z,102513.75
2023-02-12T03:00:24.093Z,102440.03
2023-02-12T03:03:13.790Z,102241.41
2023-02-12T03:05:59.150Z,102407.81
2023-02-12T03:09:08.669Z,102236.97
2023-02-12T03:11:49.805Z,102517.28
2023-02-12T03:14:28.117Z,102389.66
2023-02-12T03:17:08.142Z,102469.81
2023-02-12T03:20:16.444Z,102357.63
2023-02-12T03:23:38.628Z,102534.88
2023-02-12T03:26:54.030Z,102392.44
2023-02-12T03:29:33.087Z,102553.34
2023-02-12T06:40:22.220Z,102711.81
2023-02-12T06:43:02.514Z,102716.28
2023-02-12T06:45:36.154Z,102618.00
2023-02-12T06:48:05.263Z,102714.59
2023-02-12T06:50:36.322Z,102719.03
2023-02-12T06:53:12.851Z,102442.28
2023-02-12T06:55:58.738Z,102734.97
2023-02-12T06:58:40.011Z,102729.81
2023-02-12T07:01:17.913Z,102728.94
2023-02-12T07:03:52.784Z,102646.72
2023-02-12T07:06:29.394Z,102584.16
2023-02-12T07:08:59.046Z,102734.97
2023-02-12T07:11:37.930Z,102547.72
2023-02-12T07:14:07.930Z,102739.50
2023-02-12T07:16:44.886Z,102738.78
2023-02-12T07:19:16.886Z,102745.94
2023-02-12T07:21:46.976Z,102753.16
2023-02-12T07:24:19.464Z,102750.69
2023-02-12T07:26:54.575Z,102760.50
2023-02-12T07:29:26.850Z,102763.28
2023-02-12T07:31:55.846Z,102762.53
2023-02-12T07:34:25.081Z,102763.69
2023-02-12T07:36:56.556Z,102772.84
2023-02-12T07:39:26.467Z,102773.06
2023-02-12T07:42:00.606Z,102563.72
2023-02-12T07:44:38.174Z,102783.84
2023-02-12T07:47:07.341Z,102783.84
2023-02-12T07:49:38.844Z,102793.50
2023-02-12T07:52:13.361Z,102789.06
2023-02-12T07:54:50.496Z,102799.75
2023-02-12T07:57:21.505Z,102798.13
2023-02-12T07:59:53.826Z,102801.72
2023-02-12T08:03:00.222Z,102472.09
2023-02-12T08:05:32.879Z,102794.09
2023-02-12T08:08:03.266Z,102798.56
2023-02-12T08:10:37.224Z,102810.00
2023-02-12T08:13:28.504Z,102802.16
2023-02-12T08:16:06.694Z,102458.06
2023-02-12T08:18:41.776Z,102645.25
2023-02-12T08:21:20.829Z,102530.44
2023-02-12T08:23:57.776Z,102823.94
2023-02-12T08:33:04.020Z,102825.28
2023-02-12T08:35:41.831Z,102820.22
2023-02-12T08:38:52.630Z,102819.69
2023-02-12T08:45:18.849Z,102822.00
2023-02-12T08:48:31.093Z,102819.63
2023-02-12T10:00:26.938Z,102739.69
2023-02-12T10:03:09.470Z,102892.09
2023-02-12T10:09:12.979Z,102897.28
2023-02-12T10:11:57.369Z,102892.81
2023-02-12T10:15:01.721Z,102641.59
2023-02-12T10:17:52.909Z,102613.56
2023-02-12T10:20:51.517Z,102705.28
2023-02-12T10:24:12.667Z,102566.41
2023-02-12T10:26:51.266Z,102709.34
2023-02-12T10:29:37.564Z,102889.72
2023-02-12T10:32:24.402Z,102708.13
2023-02-12T10:34:57.996Z,102884.75
2023-02-12T10:37:46.705Z,102560.75
2023-02-12T10:40:26.489Z,102763.72
2023-02-12T10:42:58.981Z,102897.50
2023-02-12T10:45:35.683Z,102591.13
2023-02-12T10:48:17.062Z,102880.03
2023-02-12T10:51:07.563Z,102511.38
2023-02-12T10:53:45.356Z,102677.50
2023-02-12T10:56:20.664Z,102883.19
2023-02-12T10:59:20.925Z,102749.00
2023-02-12T11:01:54.025Z,102884.09
2023-02-12T11:04:32.047Z,102696.06
2023-02-12T11:07:12.658Z,102628.41
2023-02-12T11:09:51.666Z,102609.19
2023-02-12T11:12:49.565Z,102782.09
2023-02-12T11:15:38.570Z,102712.59
2023-02-12T11:18:30.487Z,102877.22
2023-02-12T11:21:13.055Z,102602.81
2023-02-12T11:23:52.607Z,102879.19
2023-02-12T11:26:31.390Z,102886.69
2023-02-12T11:29:15.397Z,102875.94
2023-02-12T11:32:02.654Z,102875.78
2023-02-12T11:34:31.960Z,102869.88
2023-02-12T11:37:02.941Z,102875.25
2023-02-12T11:39:45.322Z,102549.41
2023-02-12T11:42:27.377Z,102647.81
2023-02-12T11:45:04.599Z,102759.50
2023-02-12T11:47:37.574Z,102750.84
2023-02-12T11:50:33.318Z,102720.75
2023-02-12T11:53:44.292Z,102563.47
2023-02-12T11:56:18.003Z,102851.16
2023-02-12T11:58:51.747Z,102847.50
2023-02-12T12:01:47.301Z,102753.84
2023-02-12T12:04:24.380Z,102523.50
2023-02-12T12:07:08.840Z,102683.81
2023-02-12T12:09:45.481Z,102737.97
2023-02-12T12:12:27.905Z,102779.03
2023-02-12T12:15:37.871Z,102564.78
2023-02-12T12:18:45.349Z,102583.56
2023-02-12T12:21:42.439Z,102651.03
2023-02-12T12:24:37.041Z,102656.31
2023-02-12T12:28:17.283Z,102547.72
2023-02-12T12:31:30.955Z,102799.41
2023-02-12T12:36:03.171Z,102749.28
2023-02-12T12:38:00.458Z,102543.78
2023-02-12T12:41:51.372Z,102802.75
2023-02-12T12:45:19.195Z,102540.44
2023-02-12T12:48:39.811Z,102715.41
2023-02-12T12:51:41.425Z,102727.75
2023-02-12T12:54:44.627Z,102691.09
2023-02-12T12:57:52.902Z,102634.09
2023-02-12T13:01:02.488Z,102668.47
2023-02-12T13:04:34.125Z,102713.19
2023-02-12T13:07:21.677Z,102767.53
2023-02-12T13:10:13.386Z,102542.63
2023-02-12T13:13:25.442Z,102824.59
2023-02-12T13:16:09.591Z,102827.56
2023-02-12T13:18:57.189Z,102473.75
2023-02-12T13:21:45.667Z,102640.66
2023-02-12T13:27:44.401Z,102524.16
2023-02-12T13:30:26.484Z,102723.38
2023-02-12T13:34:14.733Z,102604.78
2023-02-12T13:36:20.153Z,102536.41
2023-02-12T13:39:07.547Z,102498.66
2023-02-12T13:41:50.856Z,102840.75
2023-02-12T13:44:50.016Z,102515.59
2023-02-12T13:47:49.424Z,102547.47
2023-02-12T13:51:07.554Z,102539.53
2023-02-12T13:54:12.556Z,102829.59
2023-02-12T13:56:56.655Z,102486.19
2023-02-12T14:00:02.526Z,102488.94
2023-02-12T14:03:02.085Z,102495.97
2023-02-12T14:05:37.705Z,102829.19
2023-02-12T14:12:11.101Z,102709.16
2023-02-12T14:14:48.428Z,102745.75
2023-02-12T14:17:58.215Z,102637.13
2023-02-12T14:20:48.742Z,102553.41
2023-02-12T14:23:28.705Z,102825.00
2023-02-12T14:26:21.432Z,102547.03
2023-02-12T14:29:09.384Z,102702.72
2023-02-12T14:31:41.813Z,102834.56
2023-02-12T14:34:41.519Z,102834.59
2023-02-12T14:37:19.552Z,102836.34
2023-02-12T14:39:48.649Z,102831.00
2023-02-12T14:42:56.673Z,102795.25
2023-02-12T14:45:36.000Z,102830.78
2023-02-12T14:48:09.938Z,102428.44
2023-02-12T14:51:00.756Z,102542.97
2023-02-12T14:53:42.946Z,102829.72
2023-02-12T14:56:26.466Z,102827.97
2023-02-12T14:59:08.435Z,102590.88
2023-02-12T15:01:41.645Z,102839.22
2023-02-12T15:04:21.525Z,102497.13
2023-02-12T15:07:08.598Z,102508.00
2023-02-12T15:09:43.934Z,102833.09
2023-02-12T15:12:40.534Z,102712.66
2023-02-12T15:15:36.283Z,102732.97
2023-02-12T15:18:13.124Z,102828.16
2023-02-12T15:20:56.633Z,102602.56
2023-02-12T15:23:48.589Z,102686.03
2023-02-12T15:26:25.609Z,102640.44
2023-02-12T15:28:57.131Z,102765.00
2023-02-12T15:34:36.417Z,102734.97
2023-02-12T15:37:24.698Z,102830.38
2023-02-12T15:40:00.523Z,102824.06
2023-02-12T15:42:51.508Z,102734.69
2023-02-12T15:45:31.285Z,102618.53
2023-02-12T15:48:17.968Z,102838.94
2023-02-12T15:50:55.930Z,102824.75
2023-02-12T15:53:54.035Z,102831.72
2023-02-12T15:56:30.968Z,102830.72
2023-02-12T15:59:05.680Z,102835.81
2023-02-12T16:01:40.252Z,102636.16
2023-02-12T16:04:13.201Z,102685.94
2023-02-12T16:06:45.588Z,102826.88
2023-02-12T16:09:26.333Z,102618.09
2023-02-12T16:11:57.053Z,102825.75
2023-02-12T16:14:46.546Z,102755.19
2023-02-12T16:17:32.136Z,102534.13
2023-02-12T16:20:05.555Z,102680.00
2023-02-12T16:22:42.002Z,102464.34
2023-02-12T16:25:26.643Z,102775.97
2023-02-12T16:28:07.042Z,102835.13
2023-02-12T16:30:48.619Z,102851.78
2023-02-12T16:33:49.598Z,102857.91
2023-02-12T16:36:40.875Z,102728.47
2023-02-12T16:40:11.742Z,102666.00
2023-02-12T16:43:04.192Z,102668.25
2023-02-12T16:45:48.016Z,102858.53
2023-02-12T16:48:36.142Z,102849.59
2023-02-12T16:51:06.472Z,102860.94
2023-02-12T16:53:47.149Z,102863.47
2023-02-12T16:56:23.136Z,102873.06
2023-02-12T17:02:39.404Z,102870.44
2023-02-12T17:05:13.758Z,102864.25
2023-02-12T17:07:45.295Z,102872.16
2023-02-12T17:10:15.172Z,102877.44
2023-02-12T17:13:05.319Z,102884.47
2023-02-12T17:15:45.884Z,102575.81
2023-02-12T17:18:18.184Z,102880.91
2023-02-12T17:20:57.773Z,102576.63
2023-02-12T17:23:31.403Z,102898.47
2023-02-12T17:26:00.564Z,102886.97
2023-02-12T17:28:29.707Z,102899.19
2023-02-12T17:30:59.245Z,102902.66
2023-02-12T17:41:37.136Z,102593.22
2023-02-12T17:45:10.642Z,102899.09
2023-02-12T17:47:41.485Z,102893.81
2023-02-12T17:50:18.215Z,102848.13
2023-02-12T17:53:01.781Z,102898.09
2023-02-12T17:55:45.694Z,102892.75
2023-02-12T17:58:30.253Z,102886.59
2023-02-12T18:01:05.078Z,102888.28
2023-02-12T18:03:34.439Z,102889.97
2023-02-12T18:06:05.740Z,102888.97
2023-02-12T18:08:40.795Z,102895.13
2023-02-12T18:11:21.484Z,102805.06
2023-02-12T18:14:54.284Z,102878.41
2023-02-12T18:17:44.601Z,102896.81
2023-02-12T18:20:16.886Z,102895.97
2023-02-12T18:22:48.986Z,102891.53
2023-02-12T18:25:20.174Z,102902.91
2023-02-12T18:27:55.626Z,102891.50
2023-02-12T18:30:25.451Z,102896.75
2023-02-12T18:32:54.672Z,102894.91
2023-02-12T18:35:26.744Z,102891.31
2023-02-12T18:37:57.176Z,102893.06
2023-02-12T18:40:46.948Z,102891.38
2023-02-12T18:43:17.219Z,102895.75
2023-02-12T18:45:49.798Z,102893.06
2023-02-12T18:48:21.854Z,102886.94
2023-02-12T18:50:58.148Z,102890.38
2023-02-12T18:53:31.992Z,102878.94
2023-02-12T18:56:06.937Z,102889.56
2023-02-12T18:58:38.839Z,102890.41
2023-02-12T19:01:15.657Z,102792.97
2023-02-12T19:04:37.939Z,102725.97
2023-02-12T19:07:18.284Z,102893.00
2023-02-12T19:09:51.136Z,102889.38
2023-02-12T19:12:20.499Z,102883.75
2023-02-12T19:14:50.157Z,102883.59
2023-02-12T19:17:27.681Z,102880.91
2023-02-12T19:19:56.842Z,102879.94
2023-02-12T19:22:29.173Z,102878.06
2023-02-12T19:25:02.835Z,102871.94
2023-02-12T19:27:32.104Z,102872.78
2023-02-12T19:30:02.283Z,102888.44
2023-02-12T19:32:31.649Z,102887.56
2023-02-12T19:35:00.878Z,102892.81
2023-02-12T19:37:31.966Z,102887.50
2023-02-12T19:40:02.402Z,102887.44
2023-02-12T19:42:33.934Z,102891.63
2023-02-12T19:45:03.332Z,102885.13
2023-02-12T19:47:36.808Z,102889.25
2023-02-12T19:53:14.748Z,102890.09
2023-02-12T19:56:01.176Z,102892.78
2023-02-12T19:58:35.264Z,102882.31
2023-02-12T20:01:13.596Z,102679.38
2023-02-12T20:03:46.392Z,102879.84
2023-02-12T20:06:21.602Z,102890.19
2023-02-12T20:08:55.972Z,102873.47
2023-02-12T20:11:29.214Z,102884.84
2023-02-12T20:14:05.310Z,102876.94
2023-02-12T20:16:46.813Z,102791.31
2023-02-12T20:19:33.422Z,102884.88
2023-02-12T20:22:05.880Z,102878.78
2023-02-12T20:24:53.742Z,102802.81
2023-02-12T20:27:24.495Z,102883.09
2023-02-12T20:29:53.773Z,102885.72
2023-02-12T20:32:32.537Z,102882.19
2023-02-12T20:35:02.004Z,102870.66
2023-02-12T20:37:35.155Z,102874.88
